Time;durP1;ratioP1;P1;durP2;ratioP2;P2;SDS_P1;SDS_P2;PMS_P1;PMS_P2;Temp;Humidity;BMP_temperature;BMP_pressure;BME280_temperature;BME280_humidity;BME280_pressure;Samples;Min_cycle;Max_cycle;Signal;HPM_P1;HPM_P2
2020/12/05 00:02:17;;;;;;;1.80;1.20;;;;;;;22.54;31.47;99090.13;4983225;28;96720;-92
2020/12/05 00:04:43;;;;;;;1.80;1.00;;;;;;;22.53;31.48;99090.22;4970159;28;96778;-92
2020/12/05 00:07:08;;;;;;;1.80;1.08;;;;;;;22.54;31.21;99100.75;4969306;28;100708;-92
2020/12/05 00:09:34;;;;;;;1.33;0.88;;;;;;;22.53;31.50;99103.50;4966696;28;99356;-92
2020/12/05 00:12:07;;;;;;;1.42;1.10;;;;;;;22.54;31.48;99113.19;4970382;28;96839;-92
2020/12/05 00:14:32;;;;;;;1.40;0.82;;;;;;;22.53;31.45;99122.97;4966599;28;96850;-92
2020/12/05 00:16:58;;;;;;;1.98;1.00;;;;;;;22.52;31.59;99120.41;4969070;28;100639;-92
2020/12/05 00:19:23;;;;;;;1.40;0.90;;;;;;;22.52;31.52;99121.25;4983077;28;100057;-92
2020/12/05 00:21:52;;;;;;;1.95;0.90;;;;;;;22.52;31.30;99121.25;4989768;28;96937;-92
2020/12/05 00:24:18;;;;;;;1.05;0.80;;;;;;;22.52;30.98;99121.25;4990028;28;96929;-91
2020/12/05 00:26:43;;;;;;;1.20;0.80;;;;;;;22.52;31.28;99134.53;4984984;28;100571;-92
2020/12/05 00:29:09;;;;;;;1.77;1.08;;;;;;;22.51;31.43;99146.09;4996346;28;104480;-91
2020/12/05 00:31:34;;;;;;;1.45;0.90;;;;;;;22.52;31.21;99147.00;4981817;28;96966;-91
2020/12/05 00:34:00;;;;;;;1.58;0.90;;;;;;;22.51;31.28;99138.13;4985775;28;112074;-92
2020/12/05 00:36:25;;;;;;;1.60;0.90;;;;;;;22.50;31.22;99154.22;4988672;28;98052;-92
2020/12/05 00:38:53;;;;;;;1.98;1.15;;;;;;;22.50;31.23;99163.03;5029188;22;99815;-41
2020/12/05 00:41:19;;;;;;;1.73;1.38;;;;;;;22.50;31.43;99164.84;5042556;27;96998;-41
2020/12/05 00:43:44;;;;;;;1.20;0.90;;;;;;;22.51;31.31;99170.03;5039010;27;97141;-41
2020/12/05 00:46:10;;;;;;;2.55;1.20;;;;;;;22.50;31.41;99164.84;5045939;27;98617;-41
2020/12/05 00:48:36;;;;;;;1.77;0.90;;;;;;;22.49;31.21;99171.94;5035650;27;97244;-41
2020/12/05 00:51:02;;;;;;;1.77;1.00;;;;;;;22.49;31.06;99157.81;5037551;27;98001;-41
2020/12/05 00:53:27;;;;;;;2.25;1.15;;;;;;;22.49;31.32;99163.97;5021015;27;96903;-41
2020/12/05 00:55:53;;;;;;;1.95;1.60;;;;;;;22.51;31.47;99153.25;5031130;28;98539;-42
2020/12/05 00:58:18;;;;;;;2.10;1.10;;;;;;;22.49;31.43;99145.34;5038299;27;120413;-41
2020/12/05 01:00:44;;;;;;;1.20;1.10;;;;;;;22.51;31.28;99142.59;5040947;27;106378;-41
2020/12/05 01:03:09;;;;;;;1.35;1.10;;;;;;;22.49;31.16;99140.03;5037681;27;111720;-41
2020/12/05 01:05:35;;;;;;;1.50;1.10;;;;;;;22.50;31.10;99146.25;5040834;27;97507;-41
2020/12/05 01:08:04;;;;;;;1.65;1.00;;;;;;;22.49;31.23;99141.84;5037310;27;99447;-41
2020/12/05 01:10:29;;;;;;;1.38;1.20;;;;;;;22.49;31.52;99141.84;5038144;27;100032;-41
2020/12/05 01:12:55;;;;;;;1.38;1.00;;;;;;;22.49;31.33;99147.19;5037593;27;97071;-41
2020/12/05 01:15:20;;;;;;;1.25;1.00;;;;;;;22.48;30.97;99146.34;5050511;27;97455;-41
2020/12/05 01:17:46;;;;;;;1.27;0.90;;;;;;;22.48;31.23;99143.69;5037274;27;126590;-41
2020/12/05 01:20:11;;;;;;;1.30;0.90;;;;;;;22.48;31.22;99137.47;5037137;27;112081;-41
2020/12/05 01:22:38;;;;;;;1.58;1.17;;;;;;;22.47;31.14;99133.97;5024988;27;111033;-41
2020/12/05 01:25:03;;;;;;;1.30;0.95;;;;;;;22.49;30.81;99141.84;5056207;27;126723;-41
2020/12/05 01:27:29;;;;;;;1.52;1.00;;;;;;;22.47;30.84;99138.44;5042300;27;97275;-41
2020/12/05 01:29:54;;;;;;;1.17;0.90;;;;;;;22.47;30.93;99144.59;5054199;27;112955;-41
2020/12/05 01:32:20;;;;;;;1.58;1.02;;;;;;;22.47;31.10;99152.59;5055743;27;112559;-41
2020/12/05 01:34:45;;;;;;;1.73;0.90;;;;;;;22.47;31.22;99157.91;5029484;27;114696;-41
2020/12/05 01:37:11;;;;;;;1.55;1.10;;;;;;;22.47;31.14;99160.56;5055604;27;126556;-41
2020/12/05 01:39:37;;;;;;;0.98;0.80;;;;;;;22.46;30.92;99160.66;5042648;27;97021;-41
2020/12/05 01:42:03;;;;;;;2.00;0.90;;;;;;;22.47;30.78;99167.69;5043601;27;104169;-41
2020/12/05 01:44:32;;;;;;;1.30;0.95;;;;;;;22.46;30.96;99172.16;5026268;28;102967;-41
2020/12/05 01:46:57;;;;;;;2.45;1.00;;;;;;;22.46;31.01;99165.97;5034401;27;126729;-41
2020/12/05 01:49:23;;;;;;;1.60;0.90;;;;;;;22.46;31.03;99169.50;5036067;27;111934;-41
2020/12/05 01:51:49;;;;;;;1.08;0.90;;;;;;;22.45;30.99;99175.75;5034225;27;96760;-41
2020/12/05 01:54:14;;;;;;;1.20;0.90;;;;;;;22.45;30.66;99170.44;5025631;27;97620;-41
2020/12/05 01:56:39;;;;;;;2.22;1.20;;;;;;;22.45;30.95;99170.44;5036913;27;114769;-41
2020/12/05 01:59:05;;;;;;;1.55;1.00;;;;;;;22.45;30.73;99172.25;5029700;27;111891;-41
2020/12/05 02:01:30;;;;;;;1.38;1.17;;;;;;;22.45;31.06;99180.22;5030543;27;97930;-41
2020/12/05 02:04:01;;;;;;;1.17;0.80;;;;;;;22.45;30.73;99175.75;4998106;28;105518;-41
2020/12/05 02:06:32;;;;;;;1.30;0.80;;;;;;;22.45;30.76;99175.75;5029000;27;97258;-41
2020/12/05 02:09:05;;;;;;;1.27;0.70;;;;;;;22.43;30.80;99178.50;5035469;27;96992;-41
2020/12/05 02:11:33;;;;;;;1.75;1.27;;;;;;;22.43;30.82;99182.97;5027556;28;96784;-41
2020/12/05 02:14:01;;;;;;;1.20;1.05;;;;;;;22.45;30.83;99185.53;5019483;28;99602;-41
2020/12/05 02:16:26;;;;;;;1.40;0.90;;;;;;;22.43;30.49;99185.63;5036462;28;97379;-41
2020/12/05 02:18:52;;;;;;;1.70;1.27;;;;;;;22.43;30.87;99189.13;5036027;27;112849;-41
2020/12/05 02:21:17;;;;;;;1.25;1.00;;;;;;;22.43;30.76;99191.78;5022669;28;97209;-41
2020/12/05 02:23:46;;;;;;;1.45;1.00;;;;;;;22.44;30.96;99189.97;5035245;28;126845;-41
2020/12/05 02:26:11;;;;;;;1.50;1.02;;;;;;;22.44;30.60;99195.28;5019394;28;97398;-41
2020/12/05 02:28:37;;;;;;;1.25;0.90;;;;;;;22.43;31.00;99196.25;5021018;28;96806;-41
2020/12/05 02:31:02;;;;;;;1.30;0.88;;;;;;;22.43;30.54;99199.75;5038575;27;97237;-41
2020/12/05 02:33:28;;;;;;;1.73;0.93;;;;;;;22.43;30.64;99197.09;5035070;27;124157;-41
2020/12/05 02:35:53;;;;;;;1.50;1.40;;;;;;;22.43;30.73;99197.09;5024112;27;97258;-41
2020/12/05 02:38:31;;;;;;;1.10;0.82;;;;;;;22.43;30.49;99188.28;5038617;27;96613;-41
2020/12/05 02:40:56;;;;;;;1.50;1.20;;;;;;;22.42;30.67;99184.78;5037017;27;96806;-41
2020/12/05 02:43:22;;;;;;;1.20;1.08;;;;;;;22.43;30.95;99188.28;5035102;27;97176;-41
2020/12/05 02:45:47;;;;;;;2.13;1.15;;;;;;;22.43;30.54;99188.28;5036197;27;126711;-41
2020/12/05 02:48:12;;;;;;;1.38;0.90;;;;;;;22.43;30.72;99185.63;5037714;27;111926;-41
2020/12/05 02:50:38;;;;;;;1.38;1.08;;;;;;;22.43;30.44;99182.97;5030531;27;96762;-41
2020/12/05 02:53:04;;;;;;;1.10;0.80;;;;;;;22.43;30.43;99177.66;5029923;28;97451;-41
2020/12/05 02:55:29;;;;;;;2.97;0.90;;;;;;;22.43;30.61;99182.97;5042966;27;97421;-41
2020/12/05 02:57:55;;;;;;;1.35;0.82;;;;;;;22.42;30.37;99176.81;5056049;27;110771;-41
2020/12/05 03:00:20;;;;;;;1.30;0.88;;;;;;;22.43;30.72;99177.66;5035932;27;111686;-41
2020/12/05 03:02:46;;;;;;;1.65;1.02;;;;;;;22.43;30.43;99182.97;5047077;27;109866;-41
2020/12/05 03:05:11;;;;;;;1.27;0.80;;;;;;;22.42;30.38;99184.78;5035508;27;106020;-41
2020/12/05 03:07:37;;;;;;;1.25;0.98;;;;;;;22.43;30.76;99177.66;5033698;27;96625;-41
2020/12/05 03:10:02;;;;;;;1.30;0.80;;;;;;;22.43;30.73;99180.31;5036350;27;112638;-42
2020/12/05 03:12:28;;;;;;;1.40;0.80;;;;;;;22.43;30.40;99188.28;5034085;27;126959;-41
2020/12/05 03:14:53;;;;;;;1.30;0.82;;;;;;;22.43;30.47;99182.97;5035204;27;126502;-41
2020/12/05 03:17:19;;;;;;;1.00;0.85;;;;;;;22.42;30.68;99182.13;5035941;27;112028;-41
2020/12/05 03:19:44;;;;;;;1.48;1.20;;;;;;;22.43;30.38;99182.97;5035506;27;98497;-41
2020/12/05 03:22:10;;;;;;;1.27;0.90;;;;;;;22.43;30.37;99182.97;5036307;27;97514;-41
2020/12/05 03:24:35;;;;;;;1.10;0.80;;;;;;;22.41;30.71;99185.72;5036105;28;126611;-41
2020/12/05 03:27:01;;;;;;;1.23;0.85;;;;;;;22.42;30.37;99181.25;5021405;27;112077;-41
2020/12/05 03:29:26;;;;;;;2.05;0.80;;;;;;;22.41;30.56;99184.84;5048889;27;96767;-41
2020/12/05 03:32:07;;;;;;;1.10;0.80;;;;;;;22.42;30.61;99187.44;5050933;27;117715;-41
2020/12/05 03:34:32;;;;;;;1.92;0.90;;;;;;;22.40;30.55;99193.75;5036810;27;97257;-41
2020/12/05 03:36:57;;;;;;;1.23;0.93;;;;;;;22.41;30.64;99195.50;5033503;27;111895;-41
2020/12/05 03:39:23;;;;;;;1.23;0.80;;;;;;;22.41;30.66;99200.81;5045493;27;112118;-41
2020/12/05 03:41:48;;;;;;;2.33;1.23;;;;;;;22.40;30.64;99199.91;5039771;27;97402;-41
2020/12/05 03:44:14;;;;;;;1.05;0.80;;;;;;;22.40;30.38;99199.91;5035170;28;127761;-41
2020/12/05 03:46:39;;;;;;;1.65;1.10;;;;;;;22.41;30.45;99206.13;5035376;27;112177;-41
2020/12/05 03:49:05;;;;;;;1.23;0.98;;;;;;;22.39;30.61;99202.69;5036026;27;111541;-41
2020/12/05 03:51:31;;;;;;;1.30;1.20;;;;;;;22.40;30.33;99207.91;5035487;27;96860;-41
2020/12/05 03:53:56;;;;;;;1.20;1.00;;;;;;;22.39;30.39;99205.38;5036009;27;97270;-41
2020/12/05 03:56:22;;;;;;;1.40;0.80;;;;;;;22.41;30.55;99211.44;5034822;28;96694;-41
2020/12/05 03:58:50;;;;;;;1.38;1.00;;;;;;;22.40;30.35;99213.22;5035835;27;96813;-41
2020/12/05 04:01:16;;;;;;;1.40;1.10;;;;;;;22.40;30.62;99223.84;5022539;28;96695;-41
2020/12/05 04:03:41;;;;;;;1.42;0.90;;;;;;;22.40;30.22;99225.66;5035623;27;126865;-41
2020/12/05 04:06:06;;;;;;;1.42;1.05;;;;;;;22.40;30.43;99226.50;5017110;28;112058;-41
2020/12/05 04:08:32;;;;;;;0.90;0.75;;;;;;;22.41;30.57;99227.38;5036608;27;96705;-41
2020/12/05 04:10:57;;;;;;;1.30;1.13;;;;;;;22.40;30.33;99226.50;5034664;27;113536;-41
2020/12/05 04:13:23;;;;;;;1.23;0.90;;;;;;;22.41;30.45;99230.03;5034209;27;98569;-41
2020/12/05 04:15:48;;;;;;;1.70;1.13;;;;;;;22.42;30.31;99231.72;5033416;27;112088;-41
2020/12/05 04:18:15;;;;;;;1.30;0.95;;;;;;;22.42;30.17;99229.06;5036004;27;96647;-41
2020/12/05 04:20:41;;;;;;;1.58;1.48;;;;;;;22.42;30.13;99232.59;5044033;27;99254;-41
2020/12/05 04:23:06;;;;;;;1.63;1.00;;;;;;;22.43;30.29;99233.44;5038613;27;116195;-41
2020/12/05 04:25:32;;;;;;;1.50;0.95;;;;;;;22.42;30.47;99237.91;5052793;27;110981;-42
2020/12/05 04:27:57;;;;;;;1.33;1.08;;;;;;;22.42;30.55;99245.00;5037357;27;108313;-41
2020/12/05 04:30:23;;;;;;;1.38;0.85;;;;;;;22.42;30.13;99248.53;5023567;28;112715;-41
2020/12/05 04:32:48;;;;;;;1.67;0.77;;;;;;;22.43;30.11;99249.38;5034592;28;97301;-41
2020/12/05 04:35:14;;;;;;;1.33;1.00;;;;;;;22.42;30.21;99251.19;5034562;27;97337;-41
2020/12/05 04:37:39;;;;;;;1.23;0.93;;;;;;;22.42;30.48;99252.97;5045550;27;111671;-41
2020/12/05 04:40:05;;;;;;;1.60;1.02;;;;;;;22.42;30.47;99253.84;5047529;27;98860;-41
2020/12/05 04:42:31;;;;;;;1.45;1.00;;;;;;;22.41;30.25;99253.94;5035282;28;97188;-41
2020/12/05 04:44:57;;;;;;;1.80;1.25;;;;;;;22.41;30.17;99252.13;5021124;27;96703;-41
2020/12/05 04:47:24;;;;;;;1.05;0.77;;;;;;;22.41;30.13;99259.25;5016723;28;112768;-41
2020/12/05 04:49:51;;;;;;;1.75;0.80;;;;;;;22.42;30.16;99263.59;5044143;27;97546;-41
2020/12/05 04:52:31;;;;;;;1.30;1.00;;;;;;;22.40;30.15;99258.38;5022667;27;112756;-41
2020/12/05 04:54:57;;;;;;;1.30;0.95;;;;;;;22.40;30.33;99261.03;5018249;28;96783;-41
2020/12/05 04:57:24;;;;;;;1.40;1.00;;;;;;;22.41;30.49;99264.56;5023169;27;111858;-41
2020/12/05 04:59:50;;;;;;;1.42;1.30;;;;;;;22.41;30.26;99269.88;5031203;28;119432;-41
2020/12/05 05:02:17;;;;;;;1.10;1.00;;;;;;;22.41;30.35;99272.53;5045158;27;97175;-41
2020/12/05 05:04:43;;;;;;;1.20;1.08;;;;;;;22.41;30.42;99272.53;5034563;27;96635;-41
2020/12/05 05:07:08;;;;;;;1.15;0.88;;;;;;;22.39;30.42;99269.97;5041024;27;96888;-41
2020/12/05 05:09:34;;;;;;;1.40;0.98;;;;;;;22.40;30.38;99273.47;5040205;27;127216;-41
2020/12/05 05:11:59;;;;;;;1.00;0.73;;;;;;;22.38;30.27;99281.53;5036794;27;97399;-41
2020/12/05 05:14:32;;;;;;;1.05;0.73;;;;;;;22.38;30.37;99278.03;5044414;27;112028;-41
2020/12/05 05:17:06;;;;;;;1.20;1.00;;;;;;;22.38;30.19;99280.69;5044306;27;96995;-41
2020/12/05 05:19:35;;;;;;;1.63;0.90;;;;;;;22.37;30.01;99281.59;5042530;27;97761;-41
2020/12/05 05:22:01;;;;;;;1.30;1.02;;;;;;;22.38;30.08;99288.63;5027730;27;97361;-41
2020/12/05 05:24:26;;;;;;;1.88;1.15;;;;;;;22.37;30.42;99279.81;5028282;27;96723;-41
2020/12/05 05:27:07;;;;;;;1.35;0.85;;;;;;;22.37;30.19;99284.25;5035682;27;111715;-41
2020/12/05 05:29:44;;;;;;;1.40;1.15;;;;;;;22.37;30.33;99287.81;5034983;27;97471;-41
2020/12/05 05:32:17;;;;;;;1.10;0.85;;;;;;;22.37;30.44;99292.22;5038622;27;97400;-41
2020/12/05 05:34:43;;;;;;;1.73;1.15;;;;;;;22.37;30.19;99277.16;5032325;28;96842;-41
2020/12/05 05:37:18;;;;;;;1.10;0.88;;;;;;;22.37;29.95;99273.63;5037777;27;96855;-41
2020/12/05 05:39:47;;;;;;;1.20;1.00;;;;;;;22.37;29.98;99276.28;5041035;27;123834;-41
2020/12/05 05:42:25;;;;;;;1.45;1.15;;;;;;;22.36;30.07;99286.06;5036618;27;97202;-41
2020/12/05 05:44:51;;;;;;;1.38;0.90;;;;;;;22.37;29.95;99298.41;5035367;27;96958;-41
2020/12/05 05:47:19;;;;;;;1.17;0.90;;;;;;;22.37;30.20;99302.84;5037086;28;111763;-41
2020/12/05 05:49:44;;;;;;;1.70;1.23;;;;;;;22.36;30.06;99304.66;5030773;27;97477;-41
2020/12/05 05:52:12;;;;;;;2.03;1.27;;;;;;;22.38;30.20;99309.88;5033043;28;126327;-41
2020/12/05 05:54:38;;;;;;;0.93;0.80;;;;;;;22.37;30.24;99317.00;5020907;28;96954;-41
2020/12/05 05:57:08;;;;;;;1.60;0.98;;;;;;;22.37;30.27;99316.13;5037881;27;111631;-41
2020/12/05 05:59:38;;;;;;;1.20;1.00;;;;;;;22.37;30.06;99313.47;5017904;28;97340;-41
2020/12/05 06:02:05;;;;;;;1.40;1.20;;;;;;;22.37;30.25;99317.00;5015850;27;97249;-41
2020/12/05 06:04:37;;;;;;;1.15;0.90;;;;;;;22.38;29.97;99320.53;5025483;27;96726;-41
2020/12/05 06:07:05;;;;;;;1.90;1.17;;;;;;;22.38;30.16;99312.56;5032678;27;104265;-41
2020/12/05 06:09:46;;;;;;;1.48;0.88;;;;;;;22.38;30.10;99309.88;5053151;27;97873;-41
2020/12/05 06:12:12;;;;;;;1.05;0.95;;;;;;;22.37;30.13;99316.13;5032288;27;97154;-41
2020/12/05 06:14:41;;;;;;;2.65;1.15;;;;;;;22.37;30.24;99322.31;5031892;27;96826;-41
2020/12/05 06:17:07;;;;;;;1.77;1.10;;;;;;;22.37;29.89;99326.75;5029136;27;98521;-41
2020/12/05 06:19:32;;;;;;;1.50;1.13;;;;;;;22.37;30.17;99335.63;5053025;27;97469;-42
2020/12/05 06:21:58;;;;;;;1.08;0.98;;;;;;;22.37;30.14;99337.38;5048366;27;97466;-41
2020/12/05 06:24:43;;;;;;;1.58;1.02;;;;;;;22.35;29.94;99342.81;5034741;27;112865;-41
2020/12/05 06:27:09;;;;;;;1.20;1.00;;;;;;;22.37;29.82;99348.00;5036817;27;96657;-41
2020/12/05 06:29:36;;;;;;;2.72;1.48;;;;;;;22.36;29.94;99346.31;5037007;28;97723;-41
2020/12/05 06:32:01;;;;;;;1.40;1.13;;;;;;;22.37;29.73;99353.31;5034825;28;127152;-41
2020/12/05 06:34:35;;;;;;;1.10;0.85;;;;;;;22.35;29.86;99361.41;5050568;27;96531;-41
2020/12/05 06:37:03;;;;;;;2.38;1.00;;;;;;;22.36;29.83;99362.25;5040449;27;96714;-41
2020/12/05 06:39:33;;;;;;;0.88;0.75;;;;;;;22.36;30.17;99367.56;5073220;22;113969;-92
2020/12/05 06:42:02;;;;;;;1.48;0.98;;;;;;;22.37;29.76;99369.25;5004630;28;99406;-91
2020/12/05 06:44:34;;;;;;;1.02;0.80;;;;;;;22.36;30.02;99371.06;5005004;28;96579;-92
2020/12/05 06:47:11;;;;;;;1.08;0.80;;;;;;;22.37;29.83;99370.16;5020553;28;96980;-92
2020/12/05 06:49:52;;;;;;;1.55;0.82;;;;;;;22.36;29.70;99370.22;5005458;28;100877;-91
2020/12/05 06:53:30;;;;;;;1.38;0.90;;;;;;;22.32;30.13;99385.50;5020702;28;96938;-91
2020/12/05 06:59:49;;;;;;;1.25;1.05;;;;;;;22.32;30.13;99392.63;4887919;28;97062;-91
2020/12/05 07:02:35;;;;;;;0.93;0.80;;;;;;;22.31;30.10;99405.03;4853465;28;100806;-91
2020/12/05 07:05:19;;;;;;;1.25;0.93;;;;;;;22.30;30.07;99399.78;4897129;28;98116;-91
2020/12/05 07:07:53;;;;;;;1.30;1.10;;;;;;;22.31;29.89;99407.69;4937725;28;97228;-90
2020/12/05 07:10:49;;;;;;;1.25;0.80;;;;;;;22.33;29.89;99418.22;4961493;28;96886;-91
2020/12/05 07:16:46;;;;;;;1.20;0.90;;;;;;;22.29;29.98;99424.66;5023665;28;100278;-91
2020/12/05 07:19:38;;;;;;;;;;;;;;;;;;;;;
2020/12/05 07:22:51;;;;;;;1.50;1.08;;;;;;;22.29;30.00;99436.13;5024043;28;97039;-91
2020/12/05 07:25:25;;;;;;;1.70;1.00;;;;;;;22.31;29.95;99436.06;4987353;28;99008;-91
2020/12/05 07:31:35;;;;;;;2.13;1.67;;;;;;;22.30;29.78;99452.91;5036672;28;96640;-92
2020/12/05 07:34:20;;;;;;;1.65;1.10;;;;;;;22.31;29.85;99454.66;4984233;28;96926;-91
2020/12/05 07:37:22;;;;;;;1.35;0.90;;;;;;;22.31;30.14;99454.66;5006483;28;100669;-91
2020/12/05 07:40:37;;;;;;;1.23;1.00;;;;;;;22.29;30.14;99468.00;5024461;28;97272;-91
2020/12/05 07:43:38;;;;;;;1.58;1.05;;;;;;;22.30;29.95;99485.66;4990900;28;96961;-91
2020/12/05 07:46:19;;;;;;;1.70;0.85;;;;;;;22.31;30.02;99486.53;5014697;28;97233;-92
2020/12/05 07:48:58;;;;;;;1.15;1.02;;;;;;;22.32;29.96;99494.41;4988984;28;99404;-91
2020/12/05 07:51:36;;;;;;;1.35;1.00;;;;;;;22.31;30.14;99500.66;5000274;28;100551;-92
2020/12/05 07:54:31;;;;;;;;;;;;;;;22.25;30.06;99504.47;5001975;28;96737;-91
2020/12/05 07:57:56;;;;;;;1.35;0.88;;;;;;;22.28;30.34;99510.59;4981388;28;96567;-91
2020/12/05 08:00:25;;;;;;;1.30;0.90;;;;;;;22.29;29.98;99507.84;5008504;28;100062;-91
2020/12/05 08:03:41;;;;;;;1.45;0.90;;;;;;;22.30;30.29;99514.00;5001850;28;99692;-91
2020/12/05 08:07:16;;;;;;;;;;;;;;;;;;;;;
2020/12/05 08:10:18;;;;;;;2.03;1.00;;;;;;;22.28;30.18;99516.78;5022100;28;96847;-91
2020/12/05 08:13:41;;;;;;;1.48;1.00;;;;;;;22.28;30.07;99523.88;5025145;28;98745;-91
2020/12/05 08:33:56;;;;;;;1.33;1.23;;;;;;;22.23;30.30;99532.09;5022009;28;96966;-91
2020/12/05 08:39:58;;;;;;;1.42;1.10;;;;;;;22.24;30.37;99555.88;5032241;28;96858;-91
2020/12/05 08:42:32;;;;;;;1.30;0.70;;;;;;;22.25;30.35;99549.63;4986846;28;100060;-92
2020/12/05 08:45:35;;;;;;;1.60;1.25;;;;;;;22.25;30.38;99551.44;4990308;28;96662;-91
2020/12/05 08:48:30;;;;;;;4.78;4.47;;;;;;;22.27;30.24;99549.59;4988140;28;96707;-91
2020/12/05 08:51:04;;;;;;;1.13;1.02;;;;;;;22.27;30.22;99562.88;5021249;28;100457;-91
2020/12/05 08:54:12;;;;;;;1.00;0.90;;;;;;;22.28;30.05;99563.72;4986601;28;100628;-91
2020/12/05 08:56:50;;;;;;;1.20;0.90;;;;;;;22.28;30.04;99574.34;5028298;27;96567;-92
2020/12/05 08:59:24;;;;;;;1.40;1.00;;;;;;;22.30;29.89;99583.94;4986655;28;96857;-91
2020/12/05 09:01:55;;;;;;;;;;;;;;;22.24;30.10;99581.59;5001313;28;99613;-92
2020/12/05 09:04:36;;;;;;;1.20;0.90;;;;;;;22.26;30.19;99582.34;5000209;28;98892;-92
2020/12/05 09:07:20;;;;;;;1.30;1.17;;;;;;;22.30;30.15;99599.00;5016037;28;96749;-91
2020/12/05 09:10:29;;;;;;;1.30;1.08;;;;;;;22.27;30.22;99597.41;5009827;28;96809;-91
2020/12/05 09:13:18;;;;;;;1.27;1.00;;;;;;;22.28;30.28;99603.56;5007010;28;100306;-91
2020/12/05 09:16:07;;;;;;;1.40;1.30;;;;;;;22.31;30.36;99606.03;5024590;28;125165;-91
2020/12/05 09:18:51;;;;;;;1.50;1.13;;;;;;;22.31;30.33;99617.53;5004868;28;96786;-90
2020/12/05 09:21:25;;;;;;;1.67;0.90;;;;;;;22.31;30.33;99614.88;4983751;28;96945;-92
2020/12/05 09:24:19;;;;;;;1.20;0.93;;;;;;;22.31;30.00;99614.03;5006390;28;100953;-92
2020/12/05 09:27:17;;;;;;;1.80;0.90;;;;;;;22.32;30.13;99621.91;5008581;28;100124;-92
2020/12/05 09:30:34;;;;;;;1.67;0.90;;;;;;;22.33;30.28;99620.09;4981817;28;96924;-91
2020/12/05 09:33:09;;;;;;;4.35;0.90;;;;;;;22.32;29.97;99605.13;5012402;28;96921;-91
2020/12/05 09:35:40;;;;;;;3.60;1.00;;;;;;;22.34;30.38;99608.53;5016354;28;100706;-91
2020/12/05 09:38:42;;;;;;;2.42;0.90;;;;;;;22.32;30.26;99621.91;5001018;28;98482;-91
2020/12/05 09:41:19;;;;;;;1.83;0.90;;;;;;;22.35;30.30;99628.84;5005109;27;97033;-90
2020/12/05 09:47:26;;;;;;;1.20;0.80;;;;;;;22.34;30.44;99635.09;5014958;28;97635;-90
2020/12/05 09:50:22;;;;;;;1.25;0.70;;;;;;;22.35;30.13;99635.03;5009398;28;96949;-90
2020/12/05 09:53:04;;;;;;;3.40;1.10;;;;;;;22.35;30.36;99640.34;4988603;28;96808;-91
2020/12/05 09:55:51;;;;;;;1.85;0.90;;;;;;;22.36;30.31;99634.06;4992390;28;96808;-91
2020/12/05 09:58:27;;;;;;;1.27;0.93;;;;;;;22.38;30.12;99633.97;5003926;28;101424;-91
2020/12/05 10:01:01;;;;;;;;;;;;;;;22.33;30.64;99633.38;4987944;28;100799;-91
2020/12/05 10:03:43;;;;;;;2.05;0.80;;;;;;;22.35;30.47;99628.84;4989770;28;97270;-91
2020/12/05 10:06:34;;;;;;;;;;;;;;;;;;;;;
2020/12/05 10:09:18;;;;;;;1.48;1.02;;;;;;;22.38;30.59;99632.19;5028470;28;101462;-91
2020/12/05 10:11:58;;;;;;;3.40;0.80;;;;;;;22.36;30.34;99618.13;5022509;28;98585;-92
2020/12/05 10:14:37;;;;;;;1.50;0.90;;;;;;;22.39;30.22;99625.94;5008242;28;97056;-93
2020/12/05 10:17:20;;;;;;;1.35;0.70;;;;;;;22.40;30.21;99632.94;4992560;28;96898;-91
2020/12/05 10:19:51;;;;;;;1.10;1.00;;;;;;;22.41;30.13;99633.81;4987244;28;99647;-91
2020/12/05 10:22:38;;;;;;;0.98;0.68;;;;;;;22.42;30.37;99632.84;4986904;28;100244;-91
2020/12/05 10:25:48;;;;;;;2.28;1.38;;;;;;;22.40;30.56;99630.28;5007124;28;96944;-93
2020/12/05 10:28:34;;;;;;;0.80;0.63;;;;;;;22.40;30.42;99637.41;5006623;28;98534;-91
2020/12/05 10:31:00;;;;;;;1.38;1.15;;;;;;;22.41;30.43;99642.63;5001473;28;102627;-91
2020/12/05 10:33:28;;;;;;;1.10;0.90;;;;;;;22.43;30.36;99629.28;4986192;28;98876;-91
2020/12/05 10:36:07;;;;;;;1.42;1.33;;;;;;;22.43;30.43;99642.56;4985990;28;96802;-91
2020/12/05 10:38:41;;;;;;;3.28;0.77;;;;;;;22.44;30.21;99636.28;4992437;28;96967;-91
2020/12/05 10:41:19;;;;;;;;;;;;;;;22.38;30.45;99634.84;4987372;28;98916;-91
2020/12/05 10:44:13;;;;;;;2.28;0.93;;;;;;;22.40;30.43;99622.31;5019304;28;100132;-90
2020/12/05 10:46:54;;;;;;;3.65;1.02;;;;;;;22.41;30.37;99626.69;4993717;28;97097;-91
2020/12/05 10:52:26;;;;;;;1.65;0.70;;;;;;;22.42;30.39;99664.75;5038057;27;100449;-90
2020/12/05 10:54:52;;;;;;;2.47;0.90;;;;;;;22.43;30.56;99677.09;5004099;28;99968;-91
2020/12/05 10:58:11;;;;;;;1.70;1.55;;;;;;;22.43;30.35;99685.06;4987157;28;96778;-90
2020/12/05 11:00:40;;;;;;;;;;;;;;;22.38;30.51;99681.81;4975125;28;97265;-91
2020/12/05 11:03:11;;;;;;;1.30;0.60;;;;;;;22.40;30.50;99687.88;5017752;28;99252;-91
2020/12/05 11:06:06;;;;;;;;;;;;;;;;;;;;;
2020/12/05 11:08:55;;;;;;;;;;;;;;;;;;;;;
2020/12/05 11:11:58;;;;;;;1.10;0.65;;;;;;;22.42;30.27;99684.22;5018136;27;97051;-91
2020/12/05 11:14:51;;;;;;;1.52;1.00;;;;;;;22.45;30.25;99679.66;4983535;28;98832;-91
2020/12/05 11:17:23;;;;;;;1.25;0.80;;;;;;;22.45;30.05;99699.13;5003649;28;99929;-90
2020/12/05 11:20:14;;;;;;;2.47;0.60;;;;;;;22.47;30.39;99707.84;5001776;28;96605;-90
2020/12/05 11:23:28;;;;;;;1.05;0.70;;;;;;;22.44;30.50;99710.69;5014304;28;97842;-90
2020/12/05 11:26:05;;;;;;;1.30;1.20;;;;;;;22.46;30.33;99716.78;5007157;28;100837;-91
2020/12/05 11:28:46;;;;;;;1.10;0.77;;;;;;;22.47;30.22;99712.31;4995948;28;100552;-90
2020/12/05 11:31:15;;;;;;;1.75;0.60;;;;;;;22.47;30.40;99715.84;5002441;28;96718;-90
2020/12/05 11:34:07;;;;;;;1.65;0.90;;;;;;;22.47;30.21;99713.16;5000617;28;96743;-90
2020/12/05 11:37:10;;;;;;;0.93;0.60;;;;;;;22.46;30.42;99719.44;5021157;27;100189;-90
2020/12/05 11:40:28;;;;;;;1.63;0.70;;;;;;;22.46;30.21;99698.19;5014544;28;98638;-90
2020/12/05 11:42:56;;;;;;;1.10;0.73;;;;;;;22.48;29.97;99695.41;4984817;28;97356;-91
2020/12/05 11:46:07;;;;;;;1.85;0.73;;;;;;;22.47;30.19;99675.97;4982285;28;96807;-91
2020/12/05 11:48:38;;;;;;;0.93;0.82;;;;;;;22.47;30.20;99691.91;5002904;28;100124;-90
2020/12/05 11:51:40;;;;;;;1.08;0.98;;;;;;;22.46;30.23;99671.63;5000394;27;100884;-90
2020/12/05 11:55:19;;;;;;;0.85;0.50;;;;;;;22.46;30.04;99670.75;5024769;27;96659;-91
2020/12/05 11:58:42;;;;;;;1.45;1.02;;;;;;;22.43;30.28;99669.13;5020561;28;97053;-90
2020/12/05 12:01:34;;;;;;;0.90;0.80;;;;;;;22.44;30.00;99686.75;5002332;28;99742;-91
2020/12/05 12:04:17;;;;;;;1.45;0.77;;;;;;;22.43;30.22;99698.34;4984085;28;100973;-91
2020/12/05 12:06:51;;;;;;;0.77;0.50;;;;;;;22.46;30.10;99706.16;5002733;28;96999;-91
2020/12/05 12:09:52;;;;;;;0.80;0.60;;;;;;;22.45;30.16;99711.56;4983156;28;96782;-91
2020/12/05 12:13:09;;;;;;;1.00;0.70;;;;;;;22.47;30.17;99715.84;4989375;28;97129;-92
2020/12/05 12:16:20;;;;;;;1.08;0.77;;;;;;;22.46;30.24;99715.91;5006364;28;99149;-91
2020/12/05 12:18:56;;;;;;;1.10;0.70;;;;;;;22.48;30.32;99719.34;5015213;28;97343;-91
2020/12/05 12:21:52;;;;;;;0.80;0.50;;;;;;;22.48;30.27;99728.19;5008960;28;97279;-91
2020/12/05 12:24:40;;;;;;;1.90;0.70;;;;;;;22.48;30.07;99722.88;4988718;28;98938;-91
2020/12/05 12:27:15;;;;;;;2.20;0.70;;;;;;;22.49;30.07;99721.06;5007912;28;101561;-91
2020/12/05 12:30:09;;;;;;;1.25;0.63;;;;;;;22.49;30.04;99719.25;5007609;28;97083;-91
2020/12/05 12:32:41;;;;;;;1.80;0.80;;;;;;;22.50;30.06;99725.44;5001685;28;96603;-91
2020/12/05 12:35:35;;;;;;;;;;;;;;;;;;;;;
2020/12/05 12:38:13;;;;;;;4.07;3.80;;;;;;;22.51;30.20;99737.78;5002528;28;100490;-90
2020/12/05 12:41:36;;;;;;;1.00;0.68;;;;;;;22.50;30.15;99736.94;5004129;28;96693;-91
2020/12/05 12:44:27;;;;;;;3.40;3.20;;;;;;;22.49;30.17;99737.84;4941687;22;96889;-48
2020/12/05 12:47:09;;;;;;;0.90;0.70;;;;;;;22.50;30.13;99736.94;5042259;27;97467;-49
2020/12/05 12:49:37;;;;;;;1.65;0.65;;;;;;;22.50;30.15;99728.97;5041807;27;97376;-49
2020/12/05 12:52:06;;;;;;;1.33;0.57;;;;;;;22.51;30.08;99733.31;5058911;27;96695;-49
2020/12/05 12:54:32;;;;;;;1.08;0.50;;;;;;;22.51;30.02;99729.81;5055138;27;96534;-49
2020/12/05 12:56:59;;;;;;;2.50;0.70;;;;;;;22.52;29.99;99731.53;5024483;27;98648;-49
2020/12/05 12:59:24;;;;;;;0.80;0.65;;;;;;;22.52;30.22;99735.03;5053195;27;97427;-49